sensor_id;sensor_type;location;lat;lon;timestamp;temperature;humidity
21387;DHT22;10854;45.922;6.716;2023-06-10T00:00:49;17.00;99.90
21387;DHT22;10854;45.922;6.716;2023-06-10T00:03:19;17.00;99.90
21387;DHT22;10854;45.922;6.716;2023-06-10T00:05:47;17.00;99.90
21387;DHT22;10854;45.922;6.716;2023-06-10T00:08:17;17.00;99.90
21387;DHT22;10854;45.922;6.716;2023-06-10T00:10:47;16.90;99.90
21387;DHT22;10854;45.922;6.716;2023-06-10T00:13:16;16.90;99.90
21387;DHT22;10854;45.922;6.716;2023-06-10T00:15:44;17.00;99.90
21387;DHT22;10854;45.922;6.716;2023-06-10T00:18:13;17.00;99.90
21387;DHT22;10854;45.922;6.716;2023-06-10T00:20:42;16.90;99.90
21387;DHT22;10854;45.922;6.716;2023-06-10T00:23:10;17.00;99.90
21387;DHT22;10854;45.922;6.716;2023-06-10T00:25:39;17.00;99.90
21387;DHT22;10854;45.922;6.716;2023-06-10T00:28:08;17.00;99.90
21387;DHT22;10854;45.922;6.716;2023-06-10T00:30:36;17.00;99.90
21387;DHT22;10854;45.922;6.716;2023-06-10T00:33:05;17.00;99.90
21387;DHT22;10854;45.922;6.716;2023-06-10T00:35:33;17.00;99.90
21387;DHT22;10854;45.922;6.716;2023-06-10T00:38:01;17.00;99.90
21387;DHT22;10854;45.922;6.716;2023-06-10T00:40:30;17.00;99.90
21387;DHT22;10854;45.922;6.716;2023-06-10T00:42:59;17.00;99.90
21387;DHT22;10854;45.922;6.716;2023-06-10T00:45:27;17.00;99.90
21387;DHT22;10854;45.922;6.716;2023-06-10T00:47:57;17.00;99.90
21387;DHT22;10854;45.922;6.716;2023-06-10T00:50:26;17.00;99.90
21387;DHT22;10854;45.922;6.716;2023-06-10T00:52:55;17.00;99.90
21387;DHT22;10854;45.922;6.716;2023-06-10T00:55:24;17.00;99.90
21387;DHT22;10854;45.922;6.716;2023-06-10T00:57:55;17.00;99.90
21387;DHT22;10854;45.922;6.716;2023-06-10T01:00:23;17.00;99.90
21387;DHT22;10854;45.922;6.716;2023-06-10T01:02:52;16.90;99.90
21387;DHT22;10854;45.922;6.716;2023-06-10T01:05:23;16.90;99.90
21387;DHT22;10854;45.922;6.716;2023-06-10T01:08:18;16.90;99.90
21387;DHT22;10854;45.922;6.716;2023-06-10T01:11:01;16.90;99.90
21387;DHT22;10854;45.922;6.716;2023-06-10T01:13:32;16.90;99.90
21387;DHT22;10854;45.922;6.716;2023-06-10T01:16:04;16.90;99.90
21387;DHT22;10854;45.922;6.716;2023-06-10T01:18:33;16.90;99.90
21387;DHT22;10854;45.922;6.716;2023-06-10T01:21:01;16.90;99.90
21387;DHT22;10854;45.922;6.716;2023-06-10T01:23:30;16.90;99.90
21387;DHT22;10854;45.922;6.716;2023-06-10T01:26:09;16.80;99.90
21387;DHT22;10854;45.922;6.716;2023-06-10T01:29:09;16.70;99.90
21387;DHT22;10854;45.922;6.716;2023-06-10T01:34:13;16.60;99.90
21387;DHT22;10854;45.922;6.716;2023-06-10T01:36:46;16.50;99.90
21387;DHT22;10854;45.922;6.716;2023-06-10T01:39:21;16.50;99.90
21387;DHT22;10854;45.922;6.716;2023-06-10T01:41:52;16.40;99.90
21387;DHT22;10854;45.922;6.716;2023-06-10T01:44:23;16.40;99.90
21387;DHT22;10854;45.922;6.716;2023-06-10T01:46:51;16.30;99.90
21387;DHT22;10854;45.922;6.716;2023-06-10T01:49:19;16.30;99.90
21387;DHT22;10854;45.922;6.716;2023-06-10T01:51:49;16.30;99.90
21387;DHT22;10854;45.922;6.716;2023-06-10T01:54:20;16.40;99.90
21387;DHT22;10854;45.922;6.716;2023-06-10T01:56:53;16.40;99.90
21387;DHT22;10854;45.922;6.716;2023-06-10T01:59:22;16.30;99.90
21387;DHT22;10854;45.922;6.716;2023-06-10T02:01:50;16.30;99.90
21387;DHT22;10854;45.922;6.716;2023-06-10T02:04:19;16.30;99.90
21387;DHT22;10854;45.922;6.716;2023-06-10T02:06:47;16.30;99.90
21387;DHT22;10854;45.922;6.716;2023-06-10T02:09:16;16.30;99.90
21387;DHT22;10854;45.922;6.716;2023-06-10T02:11:46;16.40;99.90
21387;DHT22;10854;45.922;6.716;2023-06-10T02:14:15;16.30;99.90
21387;DHT22;10854;45.922;6.716;2023-06-10T02:16:43;16.30;99.90
21387;DHT22;10854;45.922;6.716;2023-06-10T02:19:13;16.30;99.90
21387;DHT22;10854;45.922;6.716;2023-06-10T02:21:42;16.30;99.90
21387;DHT22;10854;45.922;6.716;2023-06-10T02:24:10;16.30;99.90
21387;DHT22;10854;45.922;6.716;2023-06-10T02:26:39;16.30;99.90
21387;DHT22;10854;45.922;6.716;2023-06-10T02:29:08;16.30;99.90
21387;DHT22;10854;45.922;6.716;2023-06-10T02:31:36;16.30;99.90
21387;DHT22;10854;45.922;6.716;2023-06-10T02:34:05;16.20;99.90
21387;DHT22;10854;45.922;6.716;2023-06-10T02:36:34;16.20;99.90
21387;DHT22;10854;45.922;6.716;2023-06-10T02:39:03;16.20;99.90
21387;DHT22;10854;45.922;6.716;2023-06-10T02:41:32;16.20;99.90
21387;DHT22;10854;45.922;6.716;2023-06-10T02:44:04;16.20;99.90
21387;DHT22;10854;45.922;6.716;2023-06-10T02:46:32;16.20;99.90
21387;DHT22;10854;45.922;6.716;2023-06-10T02:49:01;16.20;99.90
21387;DHT22;10854;45.922;6.716;2023-06-10T02:51:30;16.20;99.90
21387;DHT22;10854;45.922;6.716;2023-06-10T02:53:58;16.20;99.90
21387;DHT22;10854;45.922;6.716;2023-06-10T02:56:27;16.20;99.90
21387;DHT22;10854;45.922;6.716;2023-06-10T02:58:55;16.20;99.90
21387;DHT22;10854;45.922;6.716;2023-06-10T03:01:24;16.20;99.90
21387;DHT22;10854;45.922;6.716;2023-06-10T03:03:52;16.20;99.90
21387;DHT22;10854;45.922;6.716;2023-06-10T03:06:21;16.30;99.90
21387;DHT22;10854;45.922;6.716;2023-06-10T03:08:52;16.30;99.90
21387;DHT22;10854;45.922;6.716;2023-06-10T03:11:20;16.30;99.90
21387;DHT22;10854;45.922;6.716;2023-06-10T03:13:49;16.30;99.90
21387;DHT22;10854;45.922;6.716;2023-06-10T03:16:18;16.30;99.90
21387;DHT22;10854;45.922;6.716;2023-06-10T03:18:46;16.30;99.90
21387;DHT22;10854;45.922;6.716;2023-06-10T03:21:16;16.30;99.90
21387;DHT22;10854;45.922;6.716;2023-06-10T03:23:45;16.30;99.90
21387;DHT22;10854;45.922;6.716;2023-06-10T03:26:14;16.30;99.90
21387;DHT22;10854;45.922;6.716;2023-06-10T03:28:43;16.30;99.90
21387;DHT22;10854;45.922;6.716;2023-06-10T03:31:12;16.30;99.90
21387;DHT22;10854;45.922;6.716;2023-06-10T03:33:40;16.30;99.90
21387;DHT22;10854;45.922;6.716;2023-06-10T03:36:09;16.20;99.90
21387;DHT22;10854;45.922;6.716;2023-06-10T03:38:37;16.20;99.90
21387;DHT22;10854;45.922;6.716;2023-06-10T03:41:06;16.20;99.90
21387;DHT22;10854;45.922;6.716;2023-06-10T03:43:35;16.20;99.90
21387;DHT22;10854;45.922;6.716;2023-06-10T03:46:03;16.20;99.90
21387;DHT22;10854;45.922;6.716;2023-06-10T03:48:32;16.20;99.90
21387;DHT22;10854;45.922;6.716;2023-06-10T03:51:01;16.20;99.90
21387;DHT22;10854;45.922;6.716;2023-06-10T03:53:29;16.20;99.90
21387;DHT22;10854;45.922;6.716;2023-06-10T03:55:58;16.20;99.90
21387;DHT22;10854;45.922;6.716;2023-06-10T03:58:26;16.20;99.90
21387;DHT22;10854;45.922;6.716;2023-06-10T04:00:54;16.20;99.90
21387;DHT22;10854;45.922;6.716;2023-06-10T04:03:23;16.20;99.90
21387;DHT22;10854;45.922;6.716;2023-06-10T04:05:51;16.30;99.90
21387;DHT22;10854;45.922;6.716;2023-06-10T04:08:20;16.30;99.90
21387;DHT22;10854;45.922;6.716;2023-06-10T04:10:49;16.30;99.90
21387;DHT22;10854;45.922;6.716;2023-06-10T04:13:18;16.30;99.90
21387;DHT22;10854;45.922;6.716;2023-06-10T04:15:47;16.30;99.90
21387;DHT22;10854;45.922;6.716;2023-06-10T04:18:16;16.30;99.90
21387;DHT22;10854;45.922;6.716;2023-06-10T04:20:44;16.20;99.90
21387;DHT22;10854;45.922;6.716;2023-06-10T04:23:13;16.20;99.90
21387;DHT22;10854;45.922;6.716;2023-06-10T04:25:41;16.20;99.90
21387;DHT22;10854;45.922;6.716;2023-06-10T04:28:10;16.20;99.90
21387;DHT22;10854;45.922;6.716;2023-06-10T04:30:38;16.20;99.90
21387;DHT22;10854;45.922;6.716;2023-06-10T04:33:07;16.20;99.90
21387;DHT22;10854;45.922;6.716;2023-06-10T04:35:37;16.30;99.90
21387;DHT22;10854;45.922;6.716;2023-06-10T04:38:05;16.30;99.90
21387;DHT22;10854;45.922;6.716;2023-06-10T04:40:34;16.30;99.90
21387;DHT22;10854;45.922;6.716;2023-06-10T04:43:03;16.40;99.90
21387;DHT22;10854;45.922;6.716;2023-06-10T04:45:32;16.40;99.90
21387;DHT22;10854;45.922;6.716;2023-06-10T04:48:00;16.40;99.90
21387;DHT22;10854;45.922;6.716;2023-06-10T04:50:29;16.40;99.90
21387;DHT22;10854;45.922;6.716;2023-06-10T04:52:57;16.40;99.90
21387;DHT22;10854;45.922;6.716;2023-06-10T04:55:25;16.40;99.90
21387;DHT22;10854;45.922;6.716;2023-06-10T04:57:54;16.50;99.90
21387;DHT22;10854;45.922;6.716;2023-06-10T05:00:23;16.50;99.90
21387;DHT22;10854;45.922;6.716;2023-06-10T05:02:51;16.50;99.90
21387;DHT22;10854;45.922;6.716;2023-06-10T05:05:20;16.50;99.90
21387;DHT22;10854;45.922;6.716;2023-06-10T05:07:50;16.50;99.90
21387;DHT22;10854;45.922;6.716;2023-06-10T05:10:18;16.60;99.90
21387;DHT22;10854;45.922;6.716;2023-06-10T05:12:47;16.60;99.90
21387;DHT22;10854;45.922;6.716;2023-06-10T05:15:15;16.60;99.90
21387;DHT22;10854;45.922;6.716;2023-06-10T05:17:44;16.70;99.90
21387;DHT22;10854;45.922;6.716;2023-06-10T05:20:12;16.60;99.90
21387;DHT22;10854;45.922;6.716;2023-06-10T05:22:41;16.70;99.90
21387;DHT22;10854;45.922;6.716;2023-06-10T05:25:10;16.70;99.90
21387;DHT22;10854;45.922;6.716;2023-06-10T05:27:39;16.70;99.90
21387;DHT22;10854;45.922;6.716;2023-06-10T05:30:09;16.80;99.90
21387;DHT22;10854;45.922;6.716;2023-06-10T05:32:40;16.80;99.90
21387;DHT22;10854;45.922;6.716;2023-06-10T05:35:09;16.90;99.90
21387;DHT22;10854;45.922;6.716;2023-06-10T05:37:38;17.00;99.90
21387;DHT22;10854;45.922;6.716;2023-06-10T05:40:07;17.10;99.90
21387;DHT22;10854;45.922;6.716;2023-06-10T05:42:36;17.10;99.90
21387;DHT22;10854;45.922;6.716;2023-06-10T05:45:06;17.20;99.90
21387;DHT22;10854;45.922;6.716;2023-06-10T05:47:36;17.30;99.90
21387;DHT22;10854;45.922;6.716;2023-06-10T05:50:04;17.40;99.90
21387;DHT22;10854;45.922;6.716;2023-06-10T05:52:37;17.40;99.90
21387;DHT22;10854;45.922;6.716;2023-06-10T05:55:08;17.50;99.90
21387;DHT22;10854;45.922;6.716;2023-06-10T05:57:37;17.60;99.90
21387;DHT22;10854;45.922;6.716;2023-06-10T06:00:07;17.80;99.90
21387;DHT22;10854;45.922;6.716;2023-06-10T06:02:35;17.80;99.90
21387;DHT22;10854;45.922;6.716;2023-06-10T06:05:04;18.00;99.90
21387;DHT22;10854;45.922;6.716;2023-06-10T06:07:33;18.10;99.90
21387;DHT22;10854;45.922;6.716;2023-06-10T06:10:01;18.20;99.90
21387;DHT22;10854;45.922;6.716;2023-06-10T06:12:30;18.40;99.90
21387;DHT22;10854;45.922;6.716;2023-06-10T06:14:58;18.50;99.90
21387;DHT22;10854;45.922;6.716;2023-06-10T06:17:27;18.70;99.90
21387;DHT22;10854;45.922;6.716;2023-06-10T06:19:55;18.90;99.90
21387;DHT22;10854;45.922;6.716;2023-06-10T06:22:24;19.00;99.90
21387;DHT22;10854;45.922;6.716;2023-06-10T06:24:54;19.10;99.90
21387;DHT22;10854;45.922;6.716;2023-06-10T06:27:22;19.10;99.90
21387;DHT22;10854;45.922;6.716;2023-06-10T06:29:51;19.10;99.90
21387;DHT22;10854;45.922;6.716;2023-06-10T06:32:22;19.20;99.90
21387;DHT22;10854;45.922;6.716;2023-06-10T06:34:50;19.30;99.90
21387;DHT22;10854;45.922;6.716;2023-06-10T06:37:23;19.40;99.90
21387;DHT22;10854;45.922;6.716;2023-06-10T06:39:54;19.70;99.90
21387;DHT22;10854;45.922;6.716;2023-06-10T06:42:22;20.10;99.90
21387;DHT22;10854;45.922;6.716;2023-06-10T06:44:51;20.70;99.90
21387;DHT22;10854;45.922;6.716;2023-06-10T06:47:19;21.10;99.90
21387;DHT22;10854;45.922;6.716;2023-06-10T06:49:48;21.30;99.90
21387;DHT22;10854;45.922;6.716;2023-06-10T06:52:16;21.40;99.90
21387;DHT22;10854;45.922;6.716;2023-06-10T06:54:45;21.40;99.90
21387;DHT22;10854;45.922;6.716;2023-06-10T06:57:13;21.40;99.90
21387;DHT22;10854;45.922;6.716;2023-06-10T06:59:42;21.50;99.90
21387;DHT22;10854;45.922;6.716;2023-06-10T07:02:10;21.50;99.90
21387;DHT22;10854;45.922;6.716;2023-06-10T07:04:48;21.50;99.90
21387;DHT22;10854;45.922;6.716;2023-06-10T07:07:19;21.60;99.90
21387;DHT22;10854;45.922;6.716;2023-06-10T07:09:48;21.70;99.90
21387;DHT22;10854;45.922;6.716;2023-06-10T07:12:17;21.90;99.90
21387;DHT22;10854;45.922;6.716;2023-06-10T07:14:46;22.10;99.90
21387;DHT22;10854;45.922;6.716;2023-06-10T07:17:16;22.30;99.90
21387;DHT22;10854;45.922;6.716;2023-06-10T07:19:47;22.40;99.90
21387;DHT22;10854;45.922;6.716;2023-06-10T07:22:18;22.50;99.90
21387;DHT22;10854;45.922;6.716;2023-06-10T07:24:46;22.50;99.90
21387;DHT22;10854;45.922;6.716;2023-06-10T07:27:16;22.40;99.90
21387;DHT22;10854;45.922;6.716;2023-06-10T07:29:45;22.40;99.90
21387;DHT22;10854;45.922;6.716;2023-06-10T07:32:14;22.30;99.90
21387;DHT22;10854;45.922;6.716;2023-06-10T07:34:44;22.20;99.90
21387;DHT22;10854;45.922;6.716;2023-06-10T07:37:13;22.30;99.90
21387;DHT22;10854;45.922;6.716;2023-06-10T07:39:42;22.40;99.90
21387;DHT22;10854;45.922;6.716;2023-06-10T07:42:11;22.50;99.90
21387;DHT22;10854;45.922;6.716;2023-06-10T07:44:40;22.60;99.90
21387;DHT22;10854;45.922;6.716;2023-06-10T07:47:08;22.90;99.90
21387;DHT22;10854;45.922;6.716;2023-06-10T07:49:37;23.20;99.90
21387;DHT22;10854;45.922;6.716;2023-06-10T07:52:06;23.50;99.90
21387;DHT22;10854;45.922;6.716;2023-06-10T07:54:34;23.90;98.30
21387;DHT22;10854;45.922;6.716;2023-06-10T07:57:05;23.90;96.00
21387;DHT22;10854;45.922;6.716;2023-06-10T07:59:34;23.90;95.20
21387;DHT22;10854;45.922;6.716;2023-06-10T08:02:05;24.00;95.00
21387;DHT22;10854;45.922;6.716;2023-06-10T08:04:33;24.10;94.30
21387;DHT22;10854;45.922;6.716;2023-06-10T08:07:03;24.20;93.60
21387;DHT22;10854;45.922;6.716;2023-06-10T08:09:32;24.30;92.60
21387;DHT22;10854;45.922;6.716;2023-06-10T08:12:01;24.40;92.40
21387;DHT22;10854;45.922;6.716;2023-06-10T08:14:30;24.90;91.80
21387;DHT22;10854;45.922;6.716;2023-06-10T08:16:58;25.40;90.90
21387;DHT22;10854;45.922;6.716;2023-06-10T08:19:27;26.00;87.90
21387;DHT22;10854;45.922;6.716;2023-06-10T08:21:55;26.30;84.40
21387;DHT22;10854;45.922;6.716;2023-06-10T08:24:25;26.40;82.20
21387;DHT22;10854;45.922;6.716;2023-06-10T08:26:53;26.30;78.50
21387;DHT22;10854;45.922;6.716;2023-06-10T08:29:24;26.10;77.90
21387;DHT22;10854;45.922;6.716;2023-06-10T08:31:53;26.00;77.80
21387;DHT22;10854;45.922;6.716;2023-06-10T08:34:21;26.20;77.80
21387;DHT22;10854;45.922;6.716;2023-06-10T08:36:50;26.30;76.50
21387;DHT22;10854;45.922;6.716;2023-06-10T08:39:21;26.40;75.90
21387;DHT22;10854;45.922;6.716;2023-06-10T08:44:40;26.30;75.00
21387;DHT22;10854;45.922;6.716;2023-06-10T08:47:16;25.90;75.90
21387;DHT22;10854;45.922;6.716;2023-06-10T08:49:46;25.70;76.60
21387;DHT22;10854;45.922;6.716;2023-06-10T08:52:20;25.50;76.70
21387;DHT22;10854;45.922;6.716;2023-06-10T08:54:54;25.20;77.40
21387;DHT22;10854;45.922;6.716;2023-06-10T08:57:26;25.20;77.80
21387;DHT22;10854;45.922;6.716;2023-06-10T08:59:57;25.20;77.70
21387;DHT22;10854;45.922;6.716;2023-06-10T09:02:27;25.30;77.70
21387;DHT22;10854;45.922;6.716;2023-06-10T09:04:56;25.40;77.10
21387;DHT22;10854;45.922;6.716;2023-06-10T09:07:26;25.30;76.70
21387;DHT22;10854;45.922;6.716;2023-06-10T09:09:55;25.30;77.10
21387;DHT22;10854;45.922;6.716;2023-06-10T09:12:24;25.20;77.80
21387;DHT22;10854;45.922;6.716;2023-06-10T09:14:53;25.00;78.60
21387;DHT22;10854;45.922;6.716;2023-06-10T09:17:22;24.70;79.60
21387;DHT22;10854;45.922;6.716;2023-06-10T09:19:52;24.60;79.90
21387;DHT22;10854;45.922;6.716;2023-06-10T09:22:23;24.40;79.60
21387;DHT22;10854;45.922;6.716;2023-06-10T09:25:03;24.30;80.00
21387;DHT22;10854;45.922;6.716;2023-06-10T09:27:50;24.00;80.20
21387;DHT22;10854;45.922;6.716;2023-06-10T09:30:32;23.90;81.40
21387;DHT22;10854;45.922;6.716;2023-06-10T09:33:03;23.80;82.40
21387;DHT22;10854;45.922;6.716;2023-06-10T09:35:32;23.80;82.50
21387;DHT22;10854;45.922;6.716;2023-06-10T09:38:01;23.70;81.80
21387;DHT22;10854;45.922;6.716;2023-06-10T09:40:30;23.70;80.90
21387;DHT22;10854;45.922;6.716;2023-06-10T09:43:00;23.70;78.40
21387;DHT22;10854;45.922;6.716;2023-06-10T09:45:32;23.60;78.80
21387;DHT22;10854;45.922;6.716;2023-06-10T09:48:02;23.50;79.10
21387;DHT22;10854;45.922;6.716;2023-06-10T09:50:33;23.40;78.30
21387;DHT22;10854;45.922;6.716;2023-06-10T09:53:03;23.30;78.20
21387;DHT22;10854;45.922;6.716;2023-06-10T09:55:34;23.30;78.30
21387;DHT22;10854;45.922;6.716;2023-06-10T09:58:03;23.30;78.70
21387;DHT22;10854;45.922;6.716;2023-06-10T10:00:33;23.30;79.80
21387;DHT22;10854;45.922;6.716;2023-06-10T10:03:02;23.50;80.00
21387;DHT22;10854;45.922;6.716;2023-06-10T10:05:31;23.60;80.00
21387;DHT22;10854;45.922;6.716;2023-06-10T10:08:00;23.80;79.80
21387;DHT22;10854;45.922;6.716;2023-06-10T10:10:29;24.00;79.10
21387;DHT22;10854;45.922;6.716;2023-06-10T10:12:58;24.20;78.70
21387;DHT22;10854;45.922;6.716;2023-06-10T10:15:29;24.40;78.60
21387;DHT22;10854;45.922;6.716;2023-06-10T10:18:10;24.70;77.90
21387;DHT22;10854;45.922;6.716;2023-06-10T10:20:46;24.90;77.30
21387;DHT22;10854;45.922;6.716;2023-06-10T10:23:21;25.20;76.30
21387;DHT22;10854;45.922;6.716;2023-06-10T10:25:54;25.40;76.10
21387;DHT22;10854;45.922;6.716;2023-06-10T10:28:24;25.70;75.80
21387;DHT22;10854;45.922;6.716;2023-06-10T10:31:01;25.80;74.70
21387;DHT22;10854;45.922;6.716;2023-06-10T10:33:39;25.80;73.70
21387;DHT22;10854;45.922;6.716;2023-06-10T10:36:08;25.70;73.50
21387;DHT22;10854;45.922;6.716;2023-06-10T10:38:38;25.60;73.40
21387;DHT22;10854;45.922;6.716;2023-06-10T10:41:08;25.60;73.40
21387;DHT22;10854;45.922;6.716;2023-06-10T10:43:41;25.80;73.10
21387;DHT22;10854;45.922;6.716;2023-06-10T10:46:14;25.80;73.30
21387;DHT22;10854;45.922;6.716;2023-06-10T10:48:44;25.90;73.30
21387;DHT22;10854;45.922;6.716;2023-06-10T10:51:15;26.00;73.30
21387;DHT22;10854;45.922;6.716;2023-06-10T10:53:44;26.20;73.30
21387;DHT22;10854;45.922;6.716;2023-06-10T10:56:14;26.30;72.60
21387;DHT22;10854;45.922;6.716;2023-06-10T10:59:04;26.50;72.20
21387;DHT22;10854;45.922;6.716;2023-06-10T11:01:43;26.70;71.10
21387;DHT22;10854;45.922;6.716;2023-06-10T11:04:18;26.90;70.90
21387;DHT22;10854;45.922;6.716;2023-06-10T11:06:53;27.00;70.10
21387;DHT22;10854;45.922;6.716;2023-06-10T11:09:28;27.10;69.70
21387;DHT22;10854;45.922;6.716;2023-06-10T11:11:58;27.20;69.40
21387;DHT22;10854;45.922;6.716;2023-06-10T11:14:30;27.30;69.00
21387;DHT22;10854;45.922;6.716;2023-06-10T11:16:59;27.50;68.50
21387;DHT22;10854;45.922;6.716;2023-06-10T11:19:38;27.70;67.40
21387;DHT22;10854;45.922;6.716;2023-06-10T11:22:07;27.70;65.40
21387;DHT22;10854;45.922;6.716;2023-06-10T11:24:37;27.90;64.90
21387;DHT22;10854;45.922;6.716;2023-06-10T11:32:33;28.30;62.20
21387;DHT22;10854;45.922;6.716;2023-06-10T11:35:05;28.40;62.70
21387;DHT22;10854;45.922;6.716;2023-06-10T11:37:35;28.50;61.90
21387;DHT22;10854;45.922;6.716;2023-06-10T11:40:04;28.70;61.20
21387;DHT22;10854;45.922;6.716;2023-06-10T11:42:40;28.90;60.50
21387;DHT22;10854;45.922;6.716;2023-06-10T11:45:09;29.10;59.20
21387;DHT22;10854;45.922;6.716;2023-06-10T11:47:38;29.10;58.00
21387;DHT22;10854;45.922;6.716;2023-06-10T11:50:06;28.90;57.30
21387;DHT22;10854;45.922;6.716;2023-06-10T11:52:35;28.40;58.00
21387;DHT22;10854;45.922;6.716;2023-06-10T11:55:08;28.30;58.80
21387;DHT22;10854;45.922;6.716;2023-06-10T11:57:37;28.20;59.10
21387;DHT22;10854;45.922;6.716;2023-06-10T12:00:06;28.30;59.10
21387;DHT22;10854;45.922;6.716;2023-06-10T12:02:35;28.40;58.70
21387;DHT22;10854;45.922;6.716;2023-06-10T12:05:11;28.60;58.60
21387;DHT22;10854;45.922;6.716;2023-06-10T12:07:40;28.80;58.10
21387;DHT22;10854;45.922;6.716;2023-06-10T12:10:09;29.10;58.30
21387;DHT22;10854;45.922;6.716;2023-06-10T12:12:49;29.30;57.90
21387;DHT22;10854;45.922;6.716;2023-06-10T12:15:24;29.70;56.90
21387;DHT22;10854;45.922;6.716;2023-06-10T12:17:53;29.80;55.50
21387;DHT22;10854;45.922;6.716;2023-06-10T12:20:30;29.70;55.20
21387;DHT22;10854;45.922;6.716;2023-06-10T12:23:09;29.60;54.50
21387;DHT22;10854;45.922;6.716;2023-06-10T12:25:39;29.70;55.00
21387;DHT22;10854;45.922;6.716;2023-06-10T12:28:10;29.70;54.70
21387;DHT22;10854;45.922;6.716;2023-06-10T12:30:39;29.40;54.40
21387;DHT22;10854;45.922;6.716;2023-06-10T12:33:19;29.30;55.00
21387;DHT22;10854;45.922;6.716;2023-06-10T12:35:52;29.40;54.40
21387;DHT22;10854;45.922;6.716;2023-06-10T12:38:24;29.50;54.20
21387;DHT22;10854;45.922;6.716;2023-06-10T12:41:01;29.50;54.60
21387;DHT22;10854;45.922;6.716;2023-06-10T12:43:32;29.40;54.10
21387;DHT22;10854;45.922;6.716;2023-06-10T12:46:10;29.10;54.60
21387;DHT22;10854;45.922;6.716;2023-06-10T12:48:49;29.00;55.00
21387;DHT22;10854;45.922;6.716;2023-06-10T12:51:22;29.20;55.10
21387;DHT22;10854;45.922;6.716;2023-06-10T12:53:50;29.40;55.00
21387;DHT22;10854;45.922;6.716;2023-06-10T12:56:20;29.60;54.60
21387;DHT22;10854;45.922;6.716;2023-06-10T12:58:50;30.00;54.40
21387;DHT22;10854;45.922;6.716;2023-06-10T13:01:18;30.60;54.40
21387;DHT22;10854;45.922;6.716;2023-06-10T13:03:47;31.30;54.00
21387;DHT22;10854;45.922;6.716;2023-06-10T13:06:15;31.70;53.30
21387;DHT22;10854;45.922;6.716;2023-06-10T13:08:44;31.90;52.80
21387;DHT22;10854;45.922;6.716;2023-06-10T13:11:12;31.60;52.40
21387;DHT22;10854;45.922;6.716;2023-06-10T13:13:41;31.50;52.40
21387;DHT22;10854;45.922;6.716;2023-06-10T13:16:10;31.20;52.00
21387;DHT22;10854;45.922;6.716;2023-06-10T13:18:39;31.00;52.70
21387;DHT22;10854;45.922;6.716;2023-06-10T13:21:07;31.00;52.80
21387;DHT22;10854;45.922;6.716;2023-06-10T13:23:36;30.90;52.30
21387;DHT22;10854;45.922;6.716;2023-06-10T13:26:04;30.80;52.30
21387;DHT22;10854;45.922;6.716;2023-06-10T13:28:33;30.90;51.90
21387;DHT22;10854;45.922;6.716;2023-06-10T13:31:02;30.90;51.70
21387;DHT22;10854;45.922;6.716;2023-06-10T13:33:30;31.00;52.00
21387;DHT22;10854;45.922;6.716;2023-06-10T13:35:59;31.40;51.50
21387;DHT22;10854;45.922;6.716;2023-06-10T13:38:27;31.90;50.30
21387;DHT22;10854;45.922;6.716;2023-06-10T13:40:56;32.00;48.70
21387;DHT22;10854;45.922;6.716;2023-06-10T13:43:24;31.80;48.80
21387;DHT22;10854;45.922;6.716;2023-06-10T13:45:53;31.70;48.40
21387;DHT22;10854;45.922;6.716;2023-06-10T13:48:21;31.40;48.90
21387;DHT22;10854;45.922;6.716;2023-06-10T13:50:50;31.30;49.80
21387;DHT22;10854;45.922;6.716;2023-06-10T13:53:18;31.30;50.30
21387;DHT22;10854;45.922;6.716;2023-06-10T13:55:47;31.40;50.40
21387;DHT22;10854;45.922;6.716;2023-06-10T13:58:15;31.80;49.70
21387;DHT22;10854;45.922;6.716;2023-06-10T14:00:44;32.00;49.40
21387;DHT22;10854;45.922;6.716;2023-06-10T14:03:12;32.40;48.80
21387;DHT22;10854;45.922;6.716;2023-06-10T14:05:41;32.60;48.10
21387;DHT22;10854;45.922;6.716;2023-06-10T14:08:09;32.70;47.50
21387;DHT22;10854;45.922;6.716;2023-06-10T14:10:38;32.60;47.00
21387;DHT22;10854;45.922;6.716;2023-06-10T14:13:06;32.30;47.60
21387;DHT22;10854;45.922;6.716;2023-06-10T14:15:36;32.00;47.90
21387;DHT22;10854;45.922;6.716;2023-06-10T14:18:05;31.50;50.00
21387;DHT22;10854;45.922;6.716;2023-06-10T14:20:35;31.00;51.90
21387;DHT22;10854;45.922;6.716;2023-06-10T14:23:06;30.40;53.80
21387;DHT22;10854;45.922;6.716;2023-06-10T14:25:34;29.90;55.70
21387;DHT22;10854;45.922;6.716;2023-06-10T14:28:03;29.50;56.60
21387;DHT22;10854;45.922;6.716;2023-06-10T14:30:31;29.00;56.90
21387;DHT22;10854;45.922;6.716;2023-06-10T14:33:00;28.70;57.50
21387;DHT22;10854;45.922;6.716;2023-06-10T14:35:28;28.40;58.10
21387;DHT22;10854;45.922;6.716;2023-06-10T14:37:57;28.10;58.40
21387;DHT22;10854;45.922;6.716;2023-06-10T14:40:26;28.00;58.20
21387;DHT22;10854;45.922;6.716;2023-06-10T14:42:57;27.90;58.10
21387;DHT22;10854;45.922;6.716;2023-06-10T14:45:28;27.80;58.10
21387;DHT22;10854;45.922;6.716;2023-06-10T14:47:56;27.70;57.90
21387;DHT22;10854;45.922;6.716;2023-06-10T14:50:25;27.70;58.20
21387;DHT22;10854;45.922;6.716;2023-06-10T14:52:53;27.70;58.40
21387;DHT22;10854;45.922;6.716;2023-06-10T14:55:22;27.90;58.30
21387;DHT22;10854;45.922;6.716;2023-06-10T14:57:53;27.90;58.10
21387;DHT22;10854;45.922;6.716;2023-06-10T15:00:24;28.00;58.00
21387;DHT22;10854;45.922;6.716;2023-06-10T15:02:53;28.00;57.70
21387;DHT22;10854;45.922;6.716;2023-06-10T15:05:23;28.00;57.10
21387;DHT22;10854;45.922;6.716;2023-06-10T15:07:53;28.10;57.10
21387;DHT22;10854;45.922;6.716;2023-06-10T15:10:21;28.10;56.80
21387;DHT22;10854;45.922;6.716;2023-06-10T15:12:50;28.20;56.90
21387;DHT22;10854;45.922;6.716;2023-06-10T15:15:24;28.20;56.60
21387;DHT22;10854;45.922;6.716;2023-06-10T15:17:53;28.30;56.90
21387;DHT22;10854;45.922;6.716;2023-06-10T15:20:22;28.40;57.40
21387;DHT22;10854;45.922;6.716;2023-06-10T15:22:50;28.40;57.30
21387;DHT22;10854;45.922;6.716;2023-06-10T15:25:21;28.40;57.00
21387;DHT22;10854;45.922;6.716;2023-06-10T15:27:52;28.40;57.00
21387;DHT22;10854;45.922;6.716;2023-06-10T15:30:21;28.30;57.40
21387;DHT22;10854;45.922;6.716;2023-06-10T15:32:49;28.20;57.40
21387;DHT22;10854;45.922;6.716;2023-06-10T15:35:18;28.30;57.00
21387;DHT22;10854;45.922;6.716;2023-06-10T15:37:46;28.30;56.90
21387;DHT22;10854;45.922;6.716;2023-06-10T15:40:15;28.30;56.50
21387;DHT22;10854;45.922;6.716;2023-06-10T15:42:43;28.20;56.90
21387;DHT22;10854;45.922;6.716;2023-06-10T15:45:12;28.20;57.40
21387;DHT22;10854;45.922;6.716;2023-06-10T15:47:40;28.30;57.00
21387;DHT22;10854;45.922;6.716;2023-06-10T15:50:11;28.40;56.70
21387;DHT22;10854;45.922;6.716;2023-06-10T15:52:39;28.40;56.40
21387;DHT22;10854;45.922;6.716;2023-06-10T15:55:08;28.20;56.90
21387;DHT22;10854;45.922;6.716;2023-06-10T15:57:37;28.10;57.50